KMCF/MCF METAR and TAF weather

Enter ICAO airport designator
Station Type Date Time Source
KMCF METAR 2021/01/26 20:29 UTC NOAA

KMCF 262029Z AUTO 33015KT 10SM FEW010 OVC031 22/20 A3000 RMK AO2 WSHFT 28 SLP162 PWINO FZRANO $


Station Type Date Time Source
KMCF Decoded METAR 2021/01/26 20:29 UTC NOAA

Macdill Air Force Base, Fl., FL, United States (KMCF) 27-51N 082-30W 4M
Jan 26, 2021 - 03:29 PM EST / 2021.01.26 2029 UTC
Wind: from the NNW (330 degrees) at 17 MPH (15 KT):0
Visibility: 10 mile(s):0
Sky conditions: overcast
Temperature: 71 F (22 C)
Dew Point: 68 F (20 C)
Relative Humidity: 88%
Pressure (altimeter): 30 in. Hg (1015 hPa)
ob: KMCF 262029Z AUTO 33015KT 10SM FEW010 OVC031 22/20 A3000 RMK AO2 WSHFT 28 SLP162 PWINO FZRANO
cycle: 20

Station Type Date Time Source
KMCF TAF 2021/01/26 17:59 UTC NOAA

TAF
AMD KMCF 252050Z 2517/2623 22015G20KT 9999 FEW100 QNH3006INS
BECMG 2601/2602 18006KT 9999 BKN025 BKN200 QNH3005INS
BECMG 2609/2610 18009KT 0800 VCFG BKN008 BKN080 QNH3006INS
BECMG 2614/2615 18006KT 9999 NSW SCT020 QNH2999INS TX23/2520Z TN18/2611Z

Example: see airport list